Time;durP1;ratioP1;P1;durP2;ratioP2;P2;SDS_P1;SDS_P2;PMS_P1;PMS_P2;Temp;Humidity;BMP_temperature;BMP_pressure;BME280_temperature;BME280_humidity;BME280_pressure;Samples;Min_cycle;Max_cycle;Signal;HPM_P1;HPM_P2
2023/06/12 00:02:00;;;;;;;2.45;0.90;;;;;;;24.22;59.67;100519.03;5021111;28;20504;-81
2023/06/12 00:04:45;;;;;;;2.20;1.15;;;;;;;24.18;59.82;100515.47;5020854;28;20064;-82
2023/06/12 00:07:31;;;;;;;3.10;1.45;;;;;;;24.17;59.72;100509.16;5019449;28;20064;-81
2023/06/12 00:10:16;;;;;;;1.77;1.15;;;;;;;24.16;59.95;100501.19;5010202;28;20417;-81
2023/06/12 00:13:02;;;;;;;3.50;2.28;;;;;;;24.04;60.36;100508.03;5022601;28;20053;-82
2023/06/12 00:15:47;;;;;;;1.60;1.48;;;;;;;23.99;60.51;100502.13;5011539;28;20040;-82
2023/06/12 00:18:32;;;;;;;2.03;1.50;;;;;;;24.00;60.40;100509.28;5033171;28;20057;-81
2023/06/12 00:21:19;;;;;;;2.55;1.45;;;;;;;23.97;60.60;100505.34;5001915;28;20076;-82
2023/06/12 00:24:08;;;;;;;3.13;1.67;;;;;;;24.09;60.06;100498.47;5028070;28;20414;-80
2023/06/12 00:26:53;;;;;;;2.65;2.00;;;;;;;23.78;60.53;100500.34;5027090;28;20041;-80
2023/06/12 00:29:38;;;;;;;3.30;2.00;;;;;;;23.57;61.99;100504.09;5025531;28;20079;-82
2023/06/12 00:32:22;;;;;;;1.58;1.20;;;;;;;23.85;61.27;100497.50;5007329;28;20053;-81
2023/06/12 00:35:07;;;;;;;2.15;1.50;;;;;;;23.97;60.57;100499.00;4993625;28;20061;-82
2023/06/12 00:37:52;;;;;;;2.72;1.60;;;;;;;24.02;60.30;100493.78;5011829;28;20040;-82
2023/06/12 00:40:37;;;;;;;4.65;1.30;;;;;;;24.06;60.33;100493.75;5036581;28;20056;-81
2023/06/12 00:43:22;;;;;;;1.98;1.60;;;;;;;24.07;60.28;100493.34;5016882;28;20044;-82
2023/06/12 00:46:07;;;;;;;1.90;1.20;;;;;;;23.93;60.36;100489.88;5013520;28;20048;-81
2023/06/12 00:48:52;;;;;;;2.53;1.55;;;;;;;24.00;60.54;100492.59;5012278;28;20049;-81
2023/06/12 00:51:39;;;;;;;4.45;1.30;;;;;;;24.11;60.31;100490.53;5020159;28;20052;-81
2023/06/12 00:54:23;;;;;;;10.77;1.58;;;;;;;24.13;60.08;100482.53;5027582;28;20417;-81
2023/06/12 00:57:08;;;;;;;2.38;1.33;;;;;;;24.16;59.90;100487.28;5012560;28;20052;-81
2023/06/12 00:59:53;;;;;;;2.58;1.45;;;;;;;24.16;59.65;100484.50;5023908;28;20521;-81
2023/06/12 01:02:42;;;;;;;3.08;1.55;;;;;;;24.13;59.90;100476.97;5026700;28;20072;-81
2023/06/12 01:05:34;;;;;;;7.45;1.45;;;;;;;24.19;59.79;100483.69;5039899;28;20048;-81
2023/06/12 01:08:34;;;;;;;2.60;1.58;;;;;;;24.11;59.46;100490.53;5027583;28;20504;-80
2023/06/12 01:11:21;;;;;;;5.18;1.45;;;;;;;24.13;59.71;100479.75;5019878;28;20044;-80
2023/06/12 01:14:07;;;;;;;4.80;2.15;;;;;;;24.13;59.68;100465.88;5007378;28;20525;-80
2023/06/12 01:16:52;;;;;;;1.50;1.40;;;;;;;24.13;59.56;100468.66;5014183;28;20036;-79
2023/06/12 01:19:37;;;;;;;3.03;1.98;;;;;;;24.13;59.23;100469.44;5010657;28;20421;-79
2023/06/12 01:22:27;;;;;;;4.07;1.60;;;;;;;24.13;59.15;100468.66;5018314;28;20048;-79
2023/06/12 01:25:27;;;;;;;2.45;2.08;;;;;;;23.82;59.12;100470.56;5014141;28;20049;-81
2023/06/12 01:28:27;;;;;;;3.15;1.65;;;;;;;23.69;60.77;100472.25;4999769;28;20045;-80
2023/06/12 01:31:31;;;;;;;1.63;1.40;;;;;;;23.54;61.34;100482.69;5004660;28;20052;-81
2023/06/12 01:34:27;;;;;;;4.95;1.65;;;;;;;23.68;60.66;100471.47;5011622;28;20048;-81
2023/06/12 01:37:34;;;;;;;4.40;1.60;;;;;;;23.54;59.85;100477.16;5011200;28;20044;-78
2023/06/12 01:40:28;;;;;;;1.95;1.38;;;;;;;23.52;59.86;100479.53;4994153;28;20414;-79
2023/06/12 01:43:13;;;;;;;1.98;1.23;;;;;;;23.52;60.90;100473.97;5000219;28;20044;-79
2023/06/12 01:45:58;;;;;;;4.82;1.02;;;;;;;23.66;60.34;100473.09;5005957;28;20068;-79
2023/06/12 01:48:43;;;;;;;3.60;1.40;;;;;;;23.82;60.20;100476.88;5019015;28;20421;-81
2023/06/12 01:51:30;;;;;;;3.25;1.58;;;;;;;23.44;59.96;100475.22;5077923;23;20061;-82
2023/06/12 01:54:15;;;;;;;3.15;1.40;;;;;;;23.13;60.56;100465.91;4987168;28;20057;-83
2023/06/12 01:57:02;;;;;;;2.45;1.50;;;;;;;22.87;61.34;100464.50;4999465;28;20045;-82
2023/06/12 01:59:54;;;;;;;9.27;1.80;;;;;;;22.43;61.83;100464.28;4990470;28;20073;-82
2023/06/12 02:02:40;;;;;;;1.30;1.15;;;;;;;22.67;63.47;100465.34;4980779;28;20049;-80
2023/06/12 02:05:25;;;;;;;1.25;1.15;;;;;;;23.22;61.71;100466.25;4997476;28;20054;-82
2023/06/12 02:08:10;;;;;;;2.47;1.67;;;;;;;23.22;61.87;100471.00;4975328;28;20049;-82
2023/06/12 02:10:55;;;;;;;1.52;1.40;;;;;;;23.41;60.77;100462.97;4983105;28;20053;-81
2023/06/12 02:13:40;;;;;;;2.58;1.40;;;;;;;23.63;60.08;100463.59;4986909;28;20045;-81
2023/06/12 02:16:25;;;;;;;1.88;1.48;;;;;;;23.38;60.04;100463.75;4997519;28;20049;-82
2023/06/12 02:19:11;;;;;;;1.70;1.30;;;;;;;23.60;60.46;100455.28;5000521;28;20053;-82
2023/06/12 02:21:57;;;;;;;2.70;1.33;;;;;;;23.32;60.84;100464.59;4977473;28;20069;-82
2023/06/12 02:24:42;;;;;;;2.28;1.35;;;;;;;23.12;61.10;100469.88;4979079;28;20054;-80
2023/06/12 02:27:28;;;;;;;3.13;1.30;;;;;;;23.28;61.97;100467.41;4979494;28;20502;-82
2023/06/12 02:30:13;;;;;;;4.68;1.83;;;;;;;23.49;61.10;100469.25;4987898;28;20058;-81
2023/06/12 02:32:58;;;;;;;3.00;1.40;;;;;;;23.48;60.09;100470.44;4989216;28;20053;-82
2023/06/12 02:35:43;;;;;;;1.92;1.42;;;;;;;23.36;61.23;100468.16;4991779;28;20049;-81
2023/06/12 02:38:29;;;;;;;1.85;1.60;;;;;;;23.46;60.90;100467.31;4981046;28;20546;-81
2023/06/12 02:41:15;;;;;;;4.05;1.48;;;;;;;23.29;59.99;100462.66;4972746;28;20058;-82
2023/06/12 02:44:00;;;;;;;2.60;1.60;;;;;;;23.18;60.29;100467.47;4990375;28;20109;-82
2023/06/12 02:46:57;;;;;;;6.50;1.80;;;;;;;23.39;59.66;100459.00;4978390;28;20089;-82
2023/06/12 02:49:44;;;;;;;2.70;2.00;;;;;;;23.29;59.67;100462.66;4974935;28;20517;-82
2023/06/12 02:52:33;;;;;;;3.88;1.92;;;;;;;23.05;60.45;100455.28;4973388;28;20050;-81
2023/06/12 02:55:18;;;;;;;2.83;1.40;;;;;;;23.05;60.92;100456.09;4983552;28;20422;-82
2023/06/12 02:58:04;;;;;;;3.85;1.60;;;;;;;22.84;61.58;100454.22;4984338;28;20037;-82
2023/06/12 03:00:49;;;;;;;2.83;1.83;;;;;;;22.30;62.86;100461.13;4992616;28;20058;-82
2023/06/12 03:03:35;;;;;;;2.50;1.67;;;;;;;22.18;64.10;100458.81;4979007;28;20058;-81
2023/06/12 03:06:26;;;;;;;2.40;1.67;;;;;;;22.51;64.35;100463.03;4980771;28;20107;-82
2023/06/12 03:09:15;;;;;;;2.78;1.77;;;;;;;22.54;62.52;100454.75;4993206;28;20050;-82
2023/06/12 03:12:00;;;;;;;2.40;1.83;;;;;;;22.20;63.88;100450.13;4975926;28;20069;-82
2023/06/12 03:14:46;;;;;;;3.85;2.10;;;;;;;22.10;63.93;100463.56;4977350;28;20054;-82
2023/06/12 03:17:31;;;;;;;7.60;2.47;;;;;;;22.51;63.92;100461.06;4988670;28;20050;-82
2023/06/12 03:20:17;;;;;;;2.20;1.63;;;;;;;22.74;62.61;100459.81;4999687;28;20053;-81
2023/06/12 03:23:02;;;;;;;2.70;2.03;;;;;;;22.57;61.95;100458.66;4982972;28;20058;-82
2023/06/12 03:25:48;;;;;;;5.47;2.10;;;;;;;22.44;62.89;100460.31;4986904;28;20053;-82
2023/06/12 03:28:34;;;;;;;3.13;2.08;;;;;;;22.60;63.04;100466.19;4985148;28;20046;-82
2023/06/12 03:31:19;;;;;;;3.53;1.90;;;;;;;22.66;62.92;100463.78;4997663;28;20046;-81
2023/06/12 03:34:05;;;;;;;1.63;1.25;;;;;;;22.94;62.33;100467.22;5002828;28;20057;-82
2023/06/12 03:36:50;;;;;;;3.00;2.08;;;;;;;22.72;61.96;100464.97;5001891;28;20046;-82
2023/06/12 03:39:40;;;;;;;4.50;2.00;;;;;;;22.44;62.51;100466.66;4998578;28;20053;-82
2023/06/12 03:42:27;;;;;;;2.17;1.42;;;;;;;22.29;63.57;100472.66;4978900;28;20065;-80
2023/06/12 03:45:15;;;;;;;3.97;1.65;;;;;;;22.14;64.57;100467.16;4991394;28;20053;-81
2023/06/12 03:48:00;;;;;;;4.03;2.30;;;;;;;22.44;62.76;100460.31;4988725;28;20046;-82
2023/06/12 03:50:45;;;;;;;3.15;2.22;;;;;;;22.41;62.39;100459.13;4982365;28;20057;-82
2023/06/12 03:53:31;;;;;;;2.47;2.05;;;;;;;22.20;63.57;100459.19;4995802;28;20423;-82
2023/06/12 03:56:16;;;;;;;2.83;1.80;;;;;;;22.21;63.91;100462.75;4986993;28;20058;-82
2023/06/12 03:59:01;;;;;;;4.10;2.63;;;;;;;22.09;64.37;100458.44;4989921;28;20411;-82
2023/06/12 04:01:48;;;;;;;3.65;1.88;;;;;;;22.33;64.57;100465.91;4993428;28;20057;-82
2023/06/12 04:04:33;;;;;;;4.57;2.05;;;;;;;22.67;61.75;100471.69;4972258;28;20049;-81
2023/06/12 04:07:18;;;;;;;1.60;1.30;;;;;;;22.93;62.15;100464.84;4994387;28;20065;-81
2023/06/12 04:10:04;;;;;;;2.78;1.63;;;;;;;23.10;61.23;100468.72;4961788;28;20053;-83
2023/06/12 04:12:49;;;;;;;10.15;2.00;;;;;;;22.66;62.00;100461.78;4993852;28;20053;-83
2023/06/12 04:15:33;;;;;;;4.55;2.35;;;;;;;22.37;63.16;100463.91;4973081;28;20048;-83
2023/06/12 04:18:18;;;;;;;3.28;2.17;;;;;;;22.21;63.56;100463.53;4978361;28;20054;-83
2023/06/12 04:21:05;;;;;;;5.15;2.50;;;;;;;22.40;62.85;100459.56;4991124;28;20053;-83
2023/06/12 04:23:51;;;;;;;9.38;2.20;;;;;;;22.55;63.37;100461.84;4973340;28;20058;-84
2023/06/12 04:26:36;;;;;;;2.90;2.10;;;;;;;22.49;62.78;100459.91;4982541;28;20050;-83
2023/06/12 04:29:21;;;;;;;5.00;2.28;;;;;;;22.12;64.04;100463.97;4989083;28;20050;-83
2023/06/12 04:32:07;;;;;;;6.28;2.08;;;;;;;22.05;64.40;100454.88;5001370;28;20045;-82
2023/06/12 04:34:52;;;;;;;6.78;2.10;;;;;;;22.54;63.80;100451.97;4976564;28;20061;-81
2023/06/12 04:37:37;;;;;;;7.72;1.98;;;;;;;22.75;62.70;100453.88;4971458;28;20046;-81
2023/06/12 04:40:22;;;;;;;7.50;2.35;;;;;;;22.77;62.25;100456.22;4973268;28;20094;-81
2023/06/12 04:43:09;;;;;;;4.63;2.15;;;;;;;23.12;60.99;100458.78;4980689;28;20054;-82
2023/06/12 04:45:55;;;;;;;5.38;1.70;;;;;;;23.28;60.35;100461.84;4982424;28;20050;-82
2023/06/12 04:48:42;;;;;;;5.38;1.70;;;;;;;23.38;59.84;100469.31;4966275;28;20046;-82
2023/06/12 04:51:26;;;;;;;4.03;2.08;;;;;;;23.44;59.35;100469.66;4982265;28;20057;-83
2023/06/12 04:54:13;;;;;;;1.80;1.55;;;;;;;23.28;59.61;100470.19;4995383;28;20050;-82
2023/06/12 04:56:59;;;;;;;5.68;1.98;;;;;;;22.92;59.85;100477.13;4974391;28;20049;-82
2023/06/12 04:59:45;;;;;;;2.63;2.33;;;;;;;23.16;59.34;100478.22;4992800;28;20057;-82
2023/06/12 05:02:33;;;;;;;6.22;1.58;;;;;;;22.96;59.63;100481.47;4990900;28;20530;-81
2023/06/12 05:05:19;;;;;;;7.82;2.15;;;;;;;22.32;64.97;100480.94;4979878;28;20045;-82
2023/06/12 05:08:04;;;;;;;9.32;2.95;;;;;;;22.18;65.39;100478.22;4967766;28;20045;-81
2023/06/12 05:10:50;;;;;;;3.47;2.22;;;;;;;22.11;65.03;100481.78;4977080;28;20045;-82
2023/06/12 05:13:36;;;;;;;7.88;2.88;;;;;;;22.21;64.72;100479.38;4982053;28;20053;-81
2023/06/12 05:16:21;;;;;;;4.32;2.45;;;;;;;22.23;64.13;100472.25;4967323;28;20038;-82
2023/06/12 05:19:06;;;;;;;4.07;2.47;;;;;;;22.06;64.57;100473.88;4981375;28;20041;-82
2023/06/12 05:21:52;;;;;;;6.28;2.72;;;;;;;22.31;63.83;100478.56;4990983;28;20534;-81
2023/06/12 05:24:37;;;;;;;7.57;2.28;;;;;;;22.35;64.90;100473.81;4991156;28;20049;-82
2023/06/12 05:27:22;;;;;;;6.57;2.60;;;;;;;22.46;64.38;100477.31;4988560;28;20045;-80
2023/06/12 05:30:07;;;;;;;3.15;2.60;;;;;;;22.56;63.96;100484.81;4998375;28;20403;-82
2023/06/12 05:32:52;;;;;;;8.50;3.83;;;;;;;22.68;63.67;100481.59;4982260;28;20046;-83
2023/06/12 05:35:37;;;;;;;77.80;19.90;;;;;;;22.97;63.13;100474.72;4998546;28;20049;-84
2023/06/12 05:38:23;;;;;;;12.77;4.80;;;;;;;23.07;62.09;100480.63;5003245;28;20041;-83
2023/06/12 05:41:08;;;;;;;8.60;2.72;;;;;;;23.18;61.45;100482.13;4996761;28;20054;-84
2023/06/12 05:43:53;;;;;;;12.77;2.75;;;;;;;23.20;61.41;100490.06;4991367;28;20049;-84
2023/06/12 05:46:39;;;;;;;8.77;2.63;;;;;;;23.23;61.45;100489.25;4984611;28;20053;-84
2023/06/12 05:49:24;;;;;;;6.53;3.05;;;;;;;23.26;61.68;100491.22;4986475;28;20070;-83
2023/06/12 05:52:11;;;;;;;;;;;;;;;23.16;62.28;100490.06;4991565;28;20045;-84
2023/06/12 05:54:56;;;;;;;25.42;3.42;;;;;;;23.23;62.39;100489.25;5002901;28;19913;-84
2023/06/12 05:57:41;;;;;;;6.55;2.92;;;;;;;23.19;62.59;100491.25;4980667;28;20054;-83
2023/06/12 06:00:26;;;;;;;6.43;2.60;;;;;;;23.26;62.54;100494.00;4995418;28;20070;-84
2023/06/12 06:03:18;;;;;;;8.45;2.92;;;;;;;23.34;62.44;100485.19;5005416;28;20045;-83
2023/06/12 06:06:03;;;;;;;17.55;3.22;;;;;;;23.42;62.17;100492.28;4988377;28;20411;-82
2023/06/12 06:08:48;;;;;;;10.02;3.00;;;;;;;23.29;62.73;100496.75;4986981;28;20050;-84
2023/06/12 06:11:33;;;;;;;10.38;4.18;;;;;;;23.32;62.66;100489.56;4982249;28;20054;-82
2023/06/12 06:14:19;;;;;;;7.00;3.00;;;;;;;23.39;62.69;100497.84;4968311;28;20054;-84
2023/06/12 06:17:04;;;;;;;9.38;4.10;;;;;;;23.46;62.91;100495.06;4984362;28;20046;-83
2023/06/12 06:19:51;;;;;;;5.60;2.85;;;;;;;23.44;62.68;100495.44;4984564;28;20061;-82
2023/06/12 06:22:37;;;;;;;7.25;3.20;;;;;;;23.50;62.49;100504.16;4975875;28;20073;-85
2023/06/12 06:25:23;;;;;;;12.15;4.18;;;;;;;23.55;62.67;100500.16;4971538;28;20427;-83
2023/06/12 06:28:09;;;;;;;7.45;3.53;;;;;;;23.58;63.40;100505.66;4975100;28;20038;-83
2023/06/12 06:30:54;;;;;;;7.78;3.15;;;;;;;23.63;63.41;100505.22;4981370;28;20046;-82
2023/06/12 06:33:39;;;;;;;5.93;2.42;;;;;;;23.79;62.74;100504.69;4983503;28;20049;-83
2023/06/12 06:36:25;;;;;;;6.70;3.13;;;;;;;23.65;62.59;100510.38;4970275;28;20054;-83
2023/06/12 06:39:10;;;;;;;4.65;2.65;;;;;;;23.70;62.18;100513.50;4955478;28;20063;-82
2023/06/12 06:41:54;;;;;;;6.20;3.13;;;;;;;23.88;61.60;100511.34;4975310;28;20050;-83
2023/06/12 06:44:42;;;;;;;4.93;2.75;;;;;;;23.91;60.92;100517.31;4968031;28;20046;-82
2023/06/12 06:47:28;;;;;;;7.30;2.75;;;;;;;23.98;60.49;100514.44;4983991;28;20056;-82
2023/06/12 06:50:14;;;;;;;6.60;3.17;;;;;;;24.03;60.47;100514.00;4989917;28;20053;-82
2023/06/12 06:53:02;;;;;;;6.05;2.55;;;;;;;23.84;60.98;100524.50;5003004;28;20045;-81
2023/06/12 06:55:47;;;;;;;5.88;2.60;;;;;;;23.83;60.66;100511.00;4994467;28;20055;-81
2023/06/12 06:58:33;;;;;;;3.88;2.40;;;;;;;23.84;60.57;100507.84;4996017;28;20157;-83
2023/06/12 07:01:18;;;;;;;6.97;2.30;;;;;;;23.95;60.07;100518.84;4985450;28;20421;-82
2023/06/12 07:04:04;;;;;;;3.72;2.08;;;;;;;23.95;59.21;100513.28;4989947;28;20431;-81
2023/06/12 07:06:49;;;;;;;5.88;2.17;;;;;;;24.00;58.69;100517.63;4983829;28;20053;-82
2023/06/12 07:09:34;;;;;;;5.90;2.10;;;;;;;24.04;57.16;100519.16;4985020;28;20795;-81
2023/06/12 07:12:19;;;;;;;3.45;2.78;;;;;;;24.01;56.81;100524.75;4970733;28;20054;-77
2023/06/12 07:15:06;;;;;;;4.60;2.33;;;;;;;24.08;57.45;100517.13;4972655;28;20049;-78
2023/06/12 07:17:52;;;;;;;6.93;2.33;;;;;;;24.16;56.61;100524.22;4993238;28;20423;-78
2023/06/12 07:20:37;;;;;;;2.88;1.90;;;;;;;24.27;56.88;100526.91;4975018;28;20053;-78
2023/06/12 07:23:23;;;;;;;6.07;1.90;;;;;;;24.19;58.00;100517.06;4980828;28;20053;-77
2023/06/12 07:26:08;;;;;;;5.55;1.77;;;;;;;24.24;57.83;100522.94;4979448;28;20419;-77
2023/06/12 07:28:54;;;;;;;11.25;1.77;;;;;;;24.36;57.37;100515.28;4978004;28;20050;-77
2023/06/12 07:31:39;;;;;;;7.22;2.20;;;;;;;24.37;55.98;100508.53;4979001;28;20069;-77
2023/06/12 07:34:24;;;;;;;2.05;1.73;;;;;;;24.24;52.28;100505.50;4979143;28;20053;-77
2023/06/12 07:37:10;;;;;;;3.00;1.38;;;;;;;24.26;53.15;100505.88;4992272;28;20054;-77
2023/06/12 07:39:55;;;;;;;5.40;1.63;;;;;;;24.51;54.30;100511.94;4980205;28;20042;-78
2023/06/12 07:42:42;;;;;;;2.25;1.98;;;;;;;24.77;50.10;100507.66;4979013;28;20061;-77
2023/06/12 07:45:28;;;;;;;1.85;1.60;;;;;;;24.83;51.77;100513.56;4977710;28;20062;-77
2023/06/12 07:48:13;;;;;;;4.68;2.22;;;;;;;24.80;50.97;100506.03;4981372;28;20069;-77
2023/06/12 07:51:00;;;;;;;2.80;1.90;;;;;;;24.94;48.11;100508.69;4979041;28;20054;-77
2023/06/12 07:53:45;;;;;;;1.88;1.42;;;;;;;24.99;47.43;100505.44;4978215;28;20057;-78
2023/06/12 07:56:35;;;;;;;2.10;1.52;;;;;;;24.97;49.14;100513.38;4996868;28;20058;-79
2023/06/12 07:59:20;;;;;;;4.18;2.10;;;;;;;25.07;47.65;100509.69;4988871;28;20074;-77
2023/06/12 08:02:11;;;;;;;2.83;1.80;;;;;;;25.34;48.66;100513.25;4977245;28;20050;-79
2023/06/12 08:04:59;;;;;;;3.00;1.50;;;;;;;25.40;49.30;100511.56;4980426;28;20545;-77
2023/06/12 08:07:44;;;;;;;2.40;1.50;;;;;;;25.36;45.81;100513.63;4977381;28;20431;-77
2023/06/12 08:10:29;;;;;;;3.78;1.80;;;;;;;25.39;49.94;100507.22;4991962;28;20049;-78
2023/06/12 08:13:14;;;;;;;5.22;1.92;;;;;;;25.37;49.14;100508.84;4978547;28;20053;-78
2023/06/12 08:15:59;;;;;;;4.25;1.85;;;;;;;25.34;45.91;100506.91;4966636;28;20415;-77
2023/06/12 08:18:45;;;;;;;2.28;1.45;;;;;;;25.37;46.13;100504.06;4980654;28;20624;-78
2023/06/12 08:21:30;;;;;;;3.72;2.30;;;;;;;25.12;49.68;100509.19;4969486;28;20053;-78
2023/06/12 08:24:16;;;;;;;4.75;1.90;;;;;;;24.92;51.61;100503.53;4977490;28;20529;-78
2023/06/12 08:27:02;;;;;;;2.58;2.03;;;;;;;24.99;51.51;100503.41;4984813;28;20366;-78
2023/06/12 08:29:49;;;;;;;2.22;1.88;;;;;;;25.29;46.89;100499.03;4975471;28;20050;-78
2023/06/12 08:32:34;;;;;;;2.03;1.70;;;;;;;25.39;45.60;100496.09;4997049;28;20052;-78
2023/06/12 08:35:19;;;;;;;5.18;1.98;;;;;;;25.76;46.90;100497.09;4984913;28;20414;-78
2023/06/12 08:38:05;;;;;;;3.75;1.77;;;;;;;25.43;48.88;100505.16;4976549;28;20108;-78
2023/06/12 08:40:56;;;;;;;4.93;2.60;;;;;;;25.51;47.67;100506.63;4971835;28;20053;-78
2023/06/12 08:43:41;;;;;;;2.17;1.65;;;;;;;25.38;46.49;100491.72;4991883;28;20121;-77
2023/06/12 08:46:30;;;;;;;3.25;1.85;;;;;;;25.37;47.76;100495.72;4976104;28;20050;-77
2023/06/12 08:49:15;;;;;;;2.38;1.90;;;;;;;25.53;48.62;100501.41;5010457;28;20049;-77
2023/06/12 08:52:01;;;;;;;2.20;1.85;;;;;;;25.66;48.27;100495.28;5018020;28;20129;-79
2023/06/12 08:54:47;;;;;;;3.28;1.85;;;;;;;25.77;45.84;100499.47;5003427;28;20056;-78
2023/06/12 08:57:32;;;;;;;3.00;1.77;;;;;;;25.47;47.40;100505.09;4998658;28;20049;-77
2023/06/12 09:00:17;;;;;;;2.65;2.13;;;;;;;25.19;48.35;100506.34;4982968;28;20521;-77
2023/06/12 09:03:04;;;;;;;3.00;1.60;;;;;;;25.22;49.91;100494.34;4970219;28;20044;-77
2023/06/12 09:05:52;;;;;;;1.92;1.60;;;;;;;25.06;50.88;100491.41;4993305;28;20042;-77
2023/06/12 09:08:39;;;;;;;2.55;2.10;;;;;;;25.53;45.86;100493.06;4980473;28;20049;-77
2023/06/12 09:11:24;;;;;;;4.65;2.25;;;;;;;25.57;45.81;100492.25;4997144;28;20044;-77
2023/06/12 09:14:09;;;;;;;2.85;2.20;;;;;;;26.12;45.08;100492.47;4985622;28;20049;-78
2023/06/12 09:16:54;;;;;;;3.42;2.78;;;;;;;25.93;45.97;100496.00;4974316;28;20053;-78
2023/06/12 09:19:43;;;;;;;2.88;2.25;;;;;;;26.01;45.30;100494.66;4981483;28;20410;-77
2023/06/12 09:22:28;;;;;;;4.97;2.30;;;;;;;26.01;44.92;100496.69;4985097;28;20665;-78
2023/06/12 09:25:13;;;;;;;3.28;2.35;;;;;;;25.92;46.37;100486.06;4966168;28;20415;-78
2023/06/12 09:27:58;;;;;;;3.17;2.17;;;;;;;25.44;49.37;100501.19;4999986;28;20049;-78
2023/06/12 09:30:43;;;;;;;5.20;2.13;;;;;;;25.44;49.73;100487.25;4966991;28;20041;-78
2023/06/12 09:33:28;;;;;;;2.47;2.15;;;;;;;25.45;49.58;100488.81;5003090;28;20052;-78
2023/06/12 09:36:13;;;;;;;4.60;2.40;;;;;;;25.45;49.25;100499.94;5003030;28;20064;-78
2023/06/12 09:38:58;;;;;;;7.43;2.28;;;;;;;25.40;50.36;100485.72;4991553;28;20052;-78
2023/06/12 09:41:50;;;;;;;3.50;2.58;;;;;;;25.81;45.42;100491.03;5015531;28;20057;-78
2023/06/12 09:44:35;;;;;;;4.20;2.30;;;;;;;26.05;45.17;100494.59;4966378;28;20053;-78
2023/06/12 09:47:23;;;;;;;;;;;;;;;26.24;44.83;100503.03;4975869;28;20069;-77
2023/06/12 09:50:10;;;;;;;3.88;2.40;;;;;;;26.51;42.60;100491.75;4974912;28;19914;-78
2023/06/12 09:52:58;;;;;;;5.57;2.00;;;;;;;26.63;44.61;100490.31;4974588;28;20049;-78
2023/06/12 09:55:45;;;;;;;3.80;2.70;;;;;;;26.48;44.65;100483.44;4975194;28;20058;-78
2023/06/12 09:58:33;;;;;;;3.58;2.15;;;;;;;26.58;44.22;100491.59;4965121;28;20607;-78
2023/06/12 10:01:19;;;;;;;3.15;2.05;;;;;;;25.96;46.31;100487.56;4995593;28;20053;-78
2023/06/12 10:04:04;;;;;;;2.63;2.00;;;;;;;26.50;42.90;100483.81;4984048;28;20411;-78
2023/06/12 10:06:51;;;;;;;3.90;2.63;;;;;;;26.81;42.87;100487.94;4998129;28;20053;-79
2023/06/12 10:09:36;;;;;;;4.85;2.60;;;;;;;26.79;43.13;100482.78;4983403;28;20521;-79
2023/06/12 10:12:23;;;;;;;3.90;2.35;;;;;;;26.37;44.54;100478.06;4997346;28;20061;-78
2023/06/12 10:15:09;;;;;;;2.95;2.08;;;;;;;26.47;45.25;100476.28;4996928;28;20053;-78
2023/06/12 10:17:54;;;;;;;3.88;2.63;;;;;;;26.75;42.84;100479.28;4997482;28;20066;-78
2023/06/12 10:20:41;;;;;;;3.08;2.30;;;;;;;26.93;42.78;100478.91;4997897;28;20554;-79
2023/06/12 10:23:26;;;;;;;3.20;2.40;;;;;;;26.75;43.18;100478.50;4994009;28;20118;-78
2023/06/12 10:26:10;;;;;;;4.78;2.45;;;;;;;26.86;43.99;100465.09;4993402;28;20434;-78
2023/06/12 10:28:55;;;;;;;2.55;2.22;;;;;;;26.09;46.93;100471.03;4996607;28;20061;-78
2023/06/12 10:31:40;;;;;;;3.08;2.17;;;;;;;25.67;48.20;100467.00;4997434;28;20510;-78
2023/06/12 10:34:27;;;;;;;7.95;2.67;;;;;;;25.91;46.63;100473.34;4996899;28;20118;-78
2023/06/12 10:37:24;;;;;;;2.28;2.05;;;;;;;25.82;48.05;100464.75;4971859;28;20057;-78
2023/06/12 10:40:18;;;;;;;6.38;2.45;;;;;;;25.51;49.13;100456.50;4982488;28;20045;-78
2023/06/12 10:43:04;;;;;;;2.90;1.95;;;;;;;25.79;47.41;100457.25;4996471;28;20049;-78
2023/06/12 10:45:57;;;;;;;7.60;2.05;;;;;;;25.64;47.61;100447.56;4996886;28;20053;-78
2023/06/12 10:48:47;;;;;;;4.10;2.38;;;;;;;25.35;48.79;100445.22;4982249;28;20441;-78
2023/06/12 10:51:33;;;;;;;2.30;2.08;;;;;;;25.49;47.50;100456.16;4983302;28;20061;-78
2023/06/12 10:54:27;;;;;;;3.13;2.28;;;;;;;25.95;47.29;100449.78;4997783;28;20049;-78
2023/06/12 10:57:12;;;;;;;3.90;2.22;;;;;;;25.65;48.28;100449.16;4991870;28;20072;-78
2023/06/12 10:59:57;;;;;;;;;;;;;;;26.35;45.14;100444.28;5013196;28;20057;-79
2023/06/12 11:02:41;;;;;;;2.70;2.00;;;;;;;26.27;45.48;100434.47;4994351;28;19917;-78
2023/06/12 11:05:26;;;;;;;;;;;;;;;26.42;45.42;100432.94;5015698;28;20053;-78
2023/06/12 11:08:11;;;;;;;3.00;2.17;;;;;;;25.99;47.28;100430.22;4977828;28;19918;-78
2023/06/12 11:10:56;;;;;;;2.40;1.95;;;;;;;25.63;48.55;100420.94;4962280;28;20057;-78
2023/06/12 11:13:42;;;;;;;4.55;2.70;;;;;;;25.65;48.03;100424.09;4976554;28;20065;-78
2023/06/12 11:16:28;;;;;;;2.80;2.17;;;;;;;25.58;49.20;100424.19;4991624;28;20044;-78
2023/06/12 11:19:13;;;;;;;2.85;2.13;;;;;;;25.58;48.29;100424.19;4988641;28;20057;-78
2023/06/12 11:21:57;;;;;;;;;;;;;;;25.53;49.10;100420.66;5016471;28;20532;-78
2023/06/12 11:24:42;;;;;;;6.33;2.80;;;;;;;25.22;49.55;100416.41;5005316;28;19917;-78
2023/06/12 11:27:26;;;;;;;5.90;2.20;;;;;;;25.55;48.94;100412.69;5016192;28;20279;-78
2023/06/12 11:30:15;;;;;;;2.42;2.08;;;;;;;25.62;48.31;100416.56;4992572;28;20053;-78
2023/06/12 11:33:17;;;;;;;2.88;1.85;;;;;;;25.37;49.91;100406.63;5015119;28;20048;-77
2023/06/12 11:36:01;;;;;;;3.35;1.67;;;;;;;25.63;49.18;100409.78;4988612;28;20048;-78
2023/06/12 11:38:46;;;;;;;2.22;2.03;;;;;;;25.44;49.79;100411.28;4999812;28;20518;-79
2023/06/12 11:41:34;;;;;;;4.22;1.75;;;;;;;25.90;47.17;100404.91;4968284;28;20053;-79
2023/06/12 11:44:19;;;;;;;3.33;1.70;;;;;;;25.87;48.31;100411.31;4994194;28;20522;-79
2023/06/12 11:47:05;;;;;;;3.22;2.35;;;;;;;26.33;45.78;100405.66;4993167;28;20053;-78
2023/06/12 11:49:50;;;;;;;4.40;2.17;;;;;;;25.84;48.04;100403.81;4972703;28;20057;-79
2023/06/12 11:52:37;;;;;;;3.90;2.20;;;;;;;26.34;46.66;100396.06;4994403;28;20049;-79
2023/06/12 11:55:23;;;;;;;3.90;1.80;;;;;;;26.11;47.54;100390.53;4996145;28;20057;-78
2023/06/12 11:58:08;;;;;;;3.22;2.75;;;;;;;26.36;46.00;100399.19;4980102;28;20052;-78
2023/06/12 12:00:52;;;;;;;;;;;;;;;26.31;46.89;100396.16;4995931;28;20050;-79
2023/06/12 12:03:37;;;;;;;3.57;2.43;;;;;;;26.62;44.50;100393.88;4964758;28;19914;-77
2023/06/12 12:06:21;;;;;;;5.68;2.10;;;;;;;26.29;46.47;100393.78;4979613;28;20281;-78
2023/06/12 12:09:06;;;;;;;2.17;1.77;;;;;;;26.31;46.95;100391.34;4982642;28;20153;-78
2023/06/12 12:11:51;;;;;;;;;;;;;;;26.08;47.54;100388.63;4976362;28;20061;-78
2023/06/12 12:14:48;;;;;;;3.03;2.03;;;;;;;26.28;47.05;100385.84;4983880;28;20379;-78
2023/06/12 12:17:33;;;;;;;6.57;2.65;;;;;;;26.89;44.51;100379.75;4964959;28;20053;-78
2023/06/12 12:20:20;;;;;;;2.95;2.10;;;;;;;26.23;47.38;100378.78;4991074;28;20045;-78
2023/06/12 12:23:12;;;;;;;5.05;3.15;;;;;;;26.53;46.05;100371.38;4989536;28;20415;-78
2023/06/12 12:25:58;;;;;;;2.60;2.30;;;;;;;26.83;43.95;100371.06;4976398;28;20526;-78
2023/06/12 12:28:42;;;;;;;3.63;2.28;;;;;;;26.59;45.10;100361.28;4976566;28;20466;-78
2023/06/12 12:31:28;;;;;;;2.05;1.83;;;;;;;26.54;46.12;100361.78;4989855;28;20422;-78
2023/06/12 12:34:13;;;;;;;2.55;2.17;;;;;;;27.01;43.44;100349.16;5003119;28;20049;-78
2023/06/12 12:36:58;;;;;;;3.38;1.95;;;;;;;27.34;41.02;100349.09;4995496;28;20052;-78
2023/06/12 12:39:43;;;;;;;2.50;2.17;;;;;;;27.37;42.98;100342.66;5008425;28;20041;-78
2023/06/12 12:42:28;;;;;;;3.25;2.08;;;;;;;26.95;44.32;100339.72;5018535;28;20052;-78
2023/06/12 12:45:15;;;;;;;3.75;1.92;;;;;;;26.74;44.69;100335.41;4998716;28;20056;-78
2023/06/12 12:48:00;;;;;;;13.50;1.73;;;;;;;26.41;45.76;100335.81;5018653;28;20044;-78
2023/06/12 12:50:45;;;;;;;4.13;1.92;;;;;;;26.69;45.13;100333.13;4980043;28;20046;-79
2023/06/12 12:53:29;;;;;;;;;;;;;;;26.56;45.89;100320.31;4999853;28;20065;-79
2023/06/12 12:56:14;;;;;;;4.47;1.80;;;;;;;26.61;45.19;100319.78;5003363;28;20294;-79